Time;durP1;ratioP1;P1;durP2;ratioP2;P2;SDS_P1;SDS_P2;PMS_P1;PMS_P2;Temp;Humidity;BMP_temperature;BMP_pressure;BME280_temperature;BME280_humidity;BME280_pressure;Samples;Min_cycle;Max_cycle;Signal;HPM_P1;HPM_P2
2021/09/30 00:00:39;;;;;;;0.73;0.52;;;21.90;65.70;;;;;;5191438;28;20054;-49
2021/09/30 00:03:12;;;;;;;1.42;0.47;;;21.90;65.70;;;;;;5163774;28;20732;-49
2021/09/30 00:05:44;;;;;;;1.17;0.57;;;21.90;65.60;;;;;;5181149;28;20045;-50
2021/09/30 00:08:16;;;;;;;1.33;0.50;;;21.90;65.70;;;;;;5166572;28;20098;-49
2021/09/30 00:10:59;;;;;;;2.67;0.60;;;21.90;65.70;;;;;;5167654;28;20053;-49
2021/09/30 00:33:31;;;;;;;2.25;0.50;;;21.80;65.40;;;;;;5161739;28;20045;-49
2021/09/30 00:36:01;;;;;;;0.93;0.47;;;21.80;65.40;;;;;;5162147;28;20044;-53
2021/09/30 00:41:48;;;;;;;2.92;0.68;;;21.80;65.20;;;;;;5167232;28;20618;-48
2021/09/30 00:50:17;;;;;;;1.38;0.63;;;21.70;65.50;;;;;;5164774;28;20049;-49
2021/09/30 01:20:18;;;;;;;2.72;0.50;;;21.70;64.70;;;;;;5166910;28;20514;-48
2021/09/30 01:46:55;;;;;;;4.30;0.60;;;21.60;64.00;;;;;;5184761;28;20449;-47
2021/09/30 02:30:12;;;;;;;3.20;0.40;;;21.50;63.40;;;;;;5167133;28;20509;-48
2021/09/30 02:58:50;;;;;;;2.28;0.60;;;21.50;63.50;;;;;;5183660;28;20061;-51
2021/09/30 03:01:25;;;;;;;0.93;0.50;;;21.40;63.40;;;;;;5178062;28;21433;-52
2021/09/30 03:04:04;;;;;;;3.65;0.73;;;21.50;64.00;;;;;;5165452;28;20084;-48
2021/09/30 03:06:37;;;;;;;1.83;0.63;;;21.50;63.40;;;;;;5183169;28;20050;-48
2021/09/30 03:09:13;;;;;;;7.60;0.60;;;21.50;63.40;;;;;;5164490;28;20425;-48
2021/09/30 03:11:50;;;;;;;1.70;0.60;;;21.50;63.40;;;;;;5167995;28;20042;-47
2021/09/30 03:14:24;;;;;;;1.88;0.47;;;21.50;63.40;;;;;;5162353;28;20057;-48
2021/09/30 03:17:02;;;;;;;1.45;0.63;;;21.50;63.40;;;;;;5182519;28;20052;-48
2021/09/30 03:19:52;;;;;;;2.40;0.60;;;21.50;63.40;;;;;;5166035;28;20085;-48
2021/09/30 03:22:26;;;;;;;3.15;0.68;;;21.40;63.30;;;;;;5165255;28;20046;-46
2021/09/30 03:24:58;;;;;;;3.80;0.70;;;21.50;63.40;;;;;;5157219;28;20049;-48
2021/09/30 03:27:31;;;;;;;3.27;0.90;;;21.40;63.30;;;;;;5177314;28;20073;-47
2021/09/30 03:30:04;;;;;;;1.35;0.60;;;21.40;63.40;;;;;;5181679;28;20395;-48
2021/09/30 03:32:38;;;;;;;2.78;0.60;;;21.40;63.40;;;;;;5156897;28;20065;-48
2021/09/30 03:35:22;;;;;;;3.22;0.75;;;21.40;63.50;;;;;;5170804;28;20046;-49
2021/09/30 03:37:54;;;;;;;5.65;0.80;;;21.40;64.00;;;;;;5164860;28;20045;-48
2021/09/30 03:40:27;;;;;;;5.25;0.88;;;21.40;63.50;;;;;;5170087;28;20052;-47
2021/09/30 03:43:00;;;;;;;3.58;0.60;;;21.40;63.50;;;;;;5179591;28;20049;-48
2021/09/30 03:45:33;;;;;;;2.90;0.70;;;21.40;63.50;;;;;;5184823;28;20053;-48
2021/09/30 03:48:18;;;;;;;2.33;0.60;;;21.40;63.50;;;;;;5176885;28;20053;-47
2021/09/30 03:53:36;;;;;;;0.55;0.47;;;21.40;63.60;;;;;;5159535;28;20046;-50
2021/09/30 03:59:18;;;;;;;1.33;0.57;;;21.40;64.70;;;;;;5155006;28;20114;-48
2021/09/30 04:02:02;;;;;;;4.15;0.70;;;21.40;65.00;;;;;;5148203;28;20380;-46
2021/09/30 04:04:36;;;;;;;1.27;0.60;;;21.40;65.40;;;;;;5164468;28;20547;-50
2021/09/30 04:07:09;;;;;;;1.38;0.68;;;21.50;65.70;;;;;;5153014;28;20414;-49
2021/09/30 04:09:44;;;;;;;1.88;0.47;;;21.50;65.70;;;;;;5156446;28;20937;-47
2021/09/30 04:12:17;;;;;;;;;;;21.50;65.90;;;;;;5160308;28;20049;-47
2021/09/30 04:14:49;;;;;;;2.10;0.50;;;21.40;65.90;;;;;;5149588;28;19929;-49
2021/09/30 04:17:22;;;;;;;0.93;0.57;;;21.50;66.00;;;;;;5156636;28;20567;-47
2021/09/30 04:19:54;;;;;;;1.27;0.60;;;21.50;66.00;;;;;;5154036;28;20057;-47
2021/09/30 04:22:26;;;;;;;2.25;0.75;;;21.50;66.20;;;;;;5160769;28;20057;-49
2021/09/30 04:24:59;;;;;;;3.80;0.60;;;21.50;66.20;;;;;;5171572;28;20054;-47
2021/09/30 04:27:32;;;;;;;2.95;0.63;;;21.50;66.30;;;;;;5149615;28;20541;-48
2021/09/30 04:30:06;;;;;;;7.80;1.10;;;21.50;66.30;;;;;;5171765;28;20037;-50
2021/09/30 04:32:52;;;;;;;3.80;0.98;;;21.50;66.50;;;;;;5146535;28;20046;-46
2021/09/30 04:35:25;;;;;;;;;;;21.50;66.70;;;;;;5145210;28;20049;-47
2021/09/30 04:37:58;;;;;;;4.53;0.70;;;21.50;66.70;;;;;;5164018;28;20406;-49
2021/09/30 04:40:30;;;;;;;6.43;0.60;;;21.50;66.70;;;;;;5145559;28;20056;-46
2021/09/30 04:43:03;;;;;;;3.58;1.00;;;21.60;67.00;;;;;;5145501;28;20057;-48
2021/09/30 04:45:36;;;;;;;3.57;0.77;;;21.60;66.90;;;;;;5146608;28;20398;-49
2021/09/30 04:48:14;;;;;;;3.47;0.90;;;21.60;67.00;;;;;;5149665;28;20037;-48
2021/09/30 04:50:49;;;;;;;6.13;0.60;;;21.70;67.00;;;;;;5144164;28;20510;-48
2021/09/30 04:53:22;;;;;;;2.42;0.63;;;21.70;67.10;;;;;;5156827;28;20061;-49
2021/09/30 04:55:54;;;;;;;6.95;1.05;;;21.70;67.10;;;;;;5148623;28;20060;-51
2021/09/30 04:58:27;;;;;;;11.40;1.02;;;21.70;67.10;;;;;;5167764;28;20058;-54
2021/09/30 05:00:59;;;;;;;6.15;1.27;;;21.70;67.10;;;;;;5164043;28;20045;-51
2021/09/30 05:03:32;;;;;;;5.25;1.13;;;21.70;67.00;;;;;;5159291;28;20042;-49
2021/09/30 05:06:05;;;;;;;24.08;1.50;;;21.80;67.20;;;;;;5140607;28;20042;-53
2021/09/30 05:08:39;;;;;;;10.40;1.75;;;21.80;67.30;;;;;;5157659;28;20639;-52
2021/09/30 05:11:12;;;;;;;9.48;1.30;;;21.80;67.40;;;;;;5141869;28;20049;-50
2021/09/30 05:13:44;;;;;;;17.10;2.35;;;21.80;67.50;;;;;;5146720;28;20057;-55
2021/09/30 05:16:18;;;;;;;13.65;1.88;;;21.90;67.70;;;;;;5165396;28;20050;-54
2021/09/30 05:19:09;;;;;;;13.27;2.05;;;21.90;67.70;;;;;;5149358;28;20045;-54
2021/09/30 05:21:42;;;;;;;17.13;2.05;;;21.90;67.70;;;;;;5145200;28;20046;-50
2021/09/30 05:24:15;;;;;;;18.23;2.20;;;21.90;67.60;;;;;;5141672;28;20050;-48
2021/09/30 05:26:48;;;;;;;14.55;2.20;;;21.90;67.60;;;;;;5137699;28;20050;-52
2021/09/30 05:29:20;;;;;;;13.50;2.60;;;21.90;67.60;;;;;;5143394;28;20046;-47
2021/09/30 05:32:13;;;;;;;16.80;1.80;;;21.90;67.50;;;;;;5154973;28;20442;-49
2021/09/30 05:34:56;;;;;;;9.75;1.98;;;21.90;67.50;;;;;;5168345;28;20041;-52
2021/09/30 05:37:34;;;;;;;15.68;2.22;;;21.90;67.50;;;;;;5135301;28;20057;-51
2021/09/30 05:40:13;;;;;;;13.50;2.27;;;21.90;67.50;;;;;;5178818;28;20049;-49
2021/09/30 05:42:46;;;;;;;20.10;2.85;;;21.90;68.10;;;;;;5173019;28;20304;-51
2021/09/30 05:45:19;;;;;;;12.47;1.93;;;21.90;67.40;;;;;;5172196;28;20050;-51
2021/09/30 05:47:51;;;;;;;18.40;2.40;;;21.90;67.40;;;;;;5153508;28;20308;-51
2021/09/30 05:50:28;;;;;;;16.30;1.80;;;21.90;67.40;;;;;;5148932;28;20316;-53
2021/09/30 05:53:26;;;;;;;16.55;2.28;;;21.90;67.30;;;;;;5155993;28;20427;-47
2021/09/30 05:56:09;;;;;;;12.15;2.00;;;21.90;67.30;;;;;;5162753;28;20442;-50
2021/09/30 05:58:42;;;;;;;12.63;2.05;;;21.90;67.30;;;;;;5162172;28;20054;-47
2021/09/30 06:14:49;;;;;;;11.73;1.55;;;22.00;67.30;;;;;;5160689;28;20525;-53
2021/09/30 06:17:22;;;;;;;;;;;22.00;67.20;;;;;;5172540;28;20053;-49
2021/09/30 06:19:59;;;;;;;11.55;1.58;;;22.00;67.20;;;;;;5169349;28;19925;-51
2021/09/30 06:22:33;;;;;;;10.98;1.60;;;22.00;67.20;;;;;;5156777;28;20503;-53
2021/09/30 06:25:06;;;;;;;12.30;2.35;;;22.00;67.20;;;;;;5172776;28;20563;-51
2021/09/30 06:27:38;;;;;;;6.70;1.40;;;22.00;67.20;;;;;;5184306;28;21287;-49
2021/09/30 06:30:12;;;;;;;4.72;1.27;;;22.00;67.10;;;;;;5158721;28;20050;-53
2021/09/30 06:32:49;;;;;;;11.55;2.10;;;22.00;67.10;;;;;;5186077;28;20045;-51
2021/09/30 06:35:42;;;;;;;11.07;2.17;;;22.10;67.10;;;;;;5184331;28;20502;-49
2021/09/30 06:38:15;;;;;;;;;;;22.10;67.10;;;;;;5183723;28;20050;-47
2021/09/30 06:40:47;;;;;;;6.78;1.50;;;22.00;67.10;;;;;;5166273;28;19925;-49
2021/09/30 06:43:20;;;;;;;8.15;1.75;;;22.00;67.20;;;;;;5181890;28;20064;-48
2021/09/30 06:46:23;;;;;;;7.32;1.50;;;22.10;67.20;;;;;;5172662;28;20046;-48
2021/09/30 06:49:01;;;;;;;11.25;1.63;;;22.10;67.20;;;;;;5176115;28;20049;-51
2021/09/30 06:51:53;;;;;;;9.00;1.38;;;22.10;67.20;;;;;;5175239;28;20038;-54
2021/09/30 06:54:26;;;;;;;6.63;1.90;;;22.10;67.10;;;;;;5171481;28;20050;-51
2021/09/30 06:57:28;;;;;;;5.38;1.35;;;22.10;67.10;;;;;;5171521;28;20042;-49
2021/09/30 07:00:30;;;;;;;6.72;1.50;;;22.10;67.10;;;;;;5171434;28;20046;-49
2021/09/30 07:03:28;;;;;;;6.88;1.40;;;22.10;67.10;;;;;;5161201;28;20925;-48
2021/09/30 07:06:29;;;;;;;3.35;1.50;;;22.10;67.10;;;;;;5154376;28;20057;-52
2021/09/30 07:09:03;;;;;;;5.10;1.13;;;22.10;67.10;;;;;;5174883;28;20045;-53
2021/09/30 07:11:36;;;;;;;7.15;1.13;;;22.10;67.10;;;;;;5179143;28;20046;-49
2021/09/30 07:14:08;;;;;;;6.73;1.37;;;22.20;67.20;;;;;;5164299;28;20487;-49
2021/09/30 07:16:41;;;;;;;6.53;1.85;;;22.20;67.10;;;;;;5165027;28;20046;-50
2021/09/30 07:19:13;;;;;;;9.90;1.70;;;22.20;67.20;;;;;;5164831;28;20495;-51
2021/09/30 07:21:46;;;;;;;6.10;1.00;;;22.20;67.20;;;;;;5160909;28;20050;-52
2021/09/30 07:24:19;;;;;;;4.33;1.00;;;22.20;67.20;;;;;;5164059;28;20687;-49
2021/09/30 07:26:51;;;;;;;6.17;1.47;;;22.20;67.20;;;;;;5163942;28;20050;-51
2021/09/30 07:29:23;;;;;;;7.43;1.88;;;22.20;67.20;;;;;;5162681;28;20038;-50
2021/09/30 07:31:56;;;;;;;6.45;1.35;;;22.20;67.20;;;;;;5163753;28;20288;-50
2021/09/30 07:34:29;;;;;;;5.20;1.45;;;22.20;67.10;;;;;;5160085;28;20046;-53
2021/09/30 07:37:02;;;;;;;;;;;22.20;67.10;;;;;;5164440;28;20538;-50
2021/09/30 07:39:35;;;;;;;4.13;1.50;;;22.20;67.20;;;;;;5161923;28;19925;-54
2021/09/30 07:42:07;;;;;;;4.25;1.30;;;22.20;67.20;;;;;;5166996;28;20057;-50
2021/09/30 07:44:40;;;;;;;3.97;1.50;;;22.20;67.20;;;;;;5178606;28;20050;-48
2021/09/30 07:47:12;;;;;;;5.95;1.17;;;22.20;67.10;;;;;;5164249;28;20042;-47
2021/09/30 07:49:45;;;;;;;3.50;1.10;;;22.20;67.10;;;;;;5163190;28;20519;-49
2021/09/30 07:52:17;;;;;;;6.80;1.50;;;22.20;67.20;;;;;;5157779;28;20045;-52
2021/09/30 07:54:50;;;;;;;3.83;1.17;;;22.20;67.10;;;;;;5165187;28;20050;-49
2021/09/30 07:57:22;;;;;;;3.53;1.08;;;22.30;67.20;;;;;;5163659;28;20057;-47
2021/09/30 07:59:55;;;;;;;4.85;1.50;;;22.30;67.20;;;;;;5168558;28;20061;-47
2021/09/30 08:02:27;;;;;;;7.65;1.17;;;22.30;67.20;;;;;;5167654;28;20046;-48
2021/09/30 08:05:00;;;;;;;1.87;0.90;;;22.30;67.20;;;;;;5167554;28;20054;-51
2021/09/30 08:07:33;;;;;;;5.07;1.20;;;22.30;67.20;;;;;;5166654;28;20056;-51
2021/09/30 08:10:07;;;;;;;3.85;1.45;;;22.30;67.20;;;;;;5162973;28;20046;-52
2021/09/30 08:12:39;;;;;;;5.03;0.93;;;22.30;67.20;;;;;;5165100;28;20038;-47
2021/09/30 08:15:12;;;;;;;4.60;1.15;;;22.30;67.10;;;;;;5156558;28;20056;-50
2021/09/30 08:17:44;;;;;;;5.10;1.38;;;22.40;67.20;;;;;;5167472;28;20723;-50
2021/09/30 08:20:16;;;;;;;5.45;1.58;;;22.40;67.20;;;;;;5157184;28;20054;-49
2021/09/30 08:22:49;;;;;;;1.75;0.95;;;22.30;67.10;;;;;;5164260;28;20585;-47
2021/09/30 08:25:22;;;;;;;2.83;1.10;;;22.30;67.10;;;;;;5164860;28;20118;-51
2021/09/30 08:27:55;;;;;;;3.95;1.38;;;22.40;67.10;;;;;;5166322;28;20046;-49
2021/09/30 08:30:27;;;;;;;6.82;1.30;;;22.40;67.10;;;;;;5156646;28;20045;-54
2021/09/30 08:33:00;;;;;;;4.63;1.27;;;22.40;67.10;;;;;;5152827;28;20046;-50
2021/09/30 08:35:33;;;;;;;7.13;1.58;;;22.40;67.10;;;;;;5157483;28;20050;-50
2021/09/30 08:38:06;;;;;;;5.30;1.52;;;22.40;67.10;;;;;;5154238;28;20046;-52
2021/09/30 08:40:40;;;;;;;;;;;22.40;67.10;;;;;;5155062;28;20050;-47
2021/09/30 08:43:13;;;;;;;;;;;22.40;67.20;;;;;;5152206;28;19929;-52
2021/09/30 08:45:45;;;;;;;3.13;1.30;;;22.30;67.20;;;;;;5149635;28;19932;-50
2021/09/30 08:48:18;;;;;;;5.63;1.90;;;22.30;67.20;;;;;;5156497;28;20057;-54
2021/09/30 08:50:51;;;;;;;3.85;1.20;;;22.40;67.20;;;;;;5169515;28;20046;-50
2021/09/30 08:53:23;;;;;;;7.35;1.95;;;22.40;67.20;;;;;;5154583;28;20437;-50
2021/09/30 08:55:58;;;;;;;5.50;1.55;;;22.40;67.20;;;;;;5173825;28;20046;-49
2021/09/30 08:58:31;;;;;;;4.18;1.40;;;22.40;67.20;;;;;;5161473;28;20050;-48
2021/09/30 09:01:07;;;;;;;3.03;1.10;;;22.40;67.10;;;;;;5159694;28;20046;-54
2021/09/30 09:03:43;;;;;;;3.75;1.38;;;22.40;67.20;;;;;;5152578;28;20045;-53
2021/09/30 09:06:33;;;;;;;5.35;1.25;;;22.40;67.20;;;;;;5153696;28;20049;-52
2021/09/30 09:09:25;;;;;;;4.38;1.30;;;22.40;67.10;;;;;;5152337;28;20037;-54
2021/09/30 09:12:06;;;;;;;6.38;1.30;;;22.50;67.10;;;;;;5155127;28;20050;-53
2021/09/30 09:14:39;;;;;;;4.47;1.25;;;22.50;67.20;;;;;;4131946;28;10000346;-51
2021/09/30 09:17:14;;;;;;;4.82;1.33;;;22.50;67.20;;;;;;5166597;28;20048;-50
2021/09/30 09:19:50;;;;;;;4.32;1.40;;;22.50;67.20;;;;;;5170159;28;20053;-51
2021/09/30 09:22:27;;;;;;;6.63;1.58;;;22.50;67.10;;;;;;5161055;28;20058;-50
2021/09/30 09:25:05;;;;;;;4.43;1.42;;;22.50;67.10;;;;;;5165518;28;20042;-54
2021/09/30 09:27:46;;;;;;;3.05;1.27;;;22.50;67.00;;;;;;5158915;28;20049;-51
2021/09/30 09:30:34;;;;;;;3.17;1.00;;;22.50;67.00;;;;;;5164779;28;20050;-49
2021/09/30 09:33:15;;;;;;;5.65;1.50;;;22.50;66.90;;;;;;5162118;28;20057;-51
2021/09/30 09:35:53;;;;;;;4.65;1.27;;;22.50;66.90;;;;;;5164441;28;20447;-52
2021/09/30 09:38:50;;;;;;;5.93;1.98;;;22.50;66.90;;;;;;5161584;28;20619;-52
2021/09/30 09:41:29;;;;;;;3.97;1.35;;;22.50;66.80;;;;;;5162286;28;20137;-51
2021/09/30 09:44:04;;;;;;;4.97;1.80;;;22.50;66.90;;;;;;5163639;28;20430;-53
2021/09/30 09:46:39;;;;;;;14.00;1.98;;;22.50;66.90;;;;;;5157804;28;20509;-53
2021/09/30 09:49:14;;;;;;;7.43;1.70;;;22.50;66.90;;;;;;5162259;28;20046;-49
2021/09/30 09:51:49;;;;;;;10.02;2.10;;;22.50;66.90;;;;;;5161929;28;20056;-52
2021/09/30 09:54:29;;;;;;;11.27;1.95;;;22.50;66.90;;;;;;5162553;28;20049;-53
2021/09/30 09:57:10;;;;;;;6.28;2.03;;;22.50;66.90;;;;;;5176145;28;20391;-50
2021/09/30 09:59:42;;;;;;;3.63;1.60;;;22.50;66.80;;;;;;5167125;28;20064;-48
2021/09/30 10:02:31;;;;;;;10.48;1.85;;;22.50;66.90;;;;;;5164060;28;20045;-48
2021/09/30 10:05:05;;;;;;;6.60;2.17;;;22.60;66.90;;;;;;5163638;28;20541;-53
2021/09/30 10:07:37;;;;;;;8.23;1.75;;;22.50;66.90;;;;;;5178285;28;20549;-51
2021/09/30 10:10:10;;;;;;;5.37;1.80;;;22.50;66.90;;;;;;5163878;28;20054;-50
2021/09/30 10:12:43;;;;;;;7.10;2.03;;;22.60;67.00;;;;;;5158236;28;20814;-51
2021/09/30 10:15:16;;;;;;;6.07;2.20;;;22.60;66.90;;;;;;5174008;28;20049;-53
2021/09/30 10:17:48;;;;;;;12.83;2.43;;;22.60;66.90;;;;;;5166223;28;20529;-52
2021/09/30 10:20:22;;;;;;;7.05;2.05;;;22.60;67.00;;;;;;5171036;28;20057;-52
2021/09/30 10:22:55;;;;;;;10.10;2.17;;;22.60;66.90;;;;;;5167637;28;20061;-51
2021/09/30 10:25:39;;;;;;;6.55;1.63;;;22.60;66.90;;;;;;5162859;28;20060;-51
2021/09/30 10:28:12;;;;;;;7.53;2.13;;;22.60;66.90;;;;;;5170103;28;20050;-49
2021/09/30 10:30:47;;;;;;;4.20;1.55;;;22.60;66.90;;;;;;5169104;28;20049;-51
2021/09/30 10:33:38;;;;;;;11.40;1.85;;;22.60;66.90;;;;;;5171835;28;20049;-50
2021/09/30 10:36:33;;;;;;;6.10;1.45;;;22.60;66.90;;;;;;5159720;28;20050;-51
2021/09/30 10:39:22;;;;;;;4.88;1.60;;;22.60;66.80;;;;;;5156790;28;20534;-49
2021/09/30 10:41:57;;;;;;;5.85;2.00;;;22.60;66.80;;;;;;5163244;28;20054;-49
2021/09/30 10:44:36;;;;;;;6.68;2.22;;;22.60;66.90;;;;;;5166312;28;20050;-51
2021/09/30 10:47:09;;;;;;;6.47;2.00;;;22.60;66.90;;;;;;5162857;28;20570;-49
2021/09/30 10:49:48;;;;;;;5.63;1.93;;;22.60;67.00;;;;;;5167555;28;20045;-51
2021/09/30 10:52:25;;;;;;;12.10;2.00;;;22.70;67.10;;;;;;5163581;28;20542;-54
2021/09/30 10:55:02;;;;;;;7.72;2.00;;;22.70;67.10;;;;;;5166905;28;20053;-52
2021/09/30 10:57:44;;;;;;;5.15;1.92;;;22.70;67.10;;;;;;5171961;28;20046;-51
2021/09/30 11:00:17;;;;;;;4.35;1.50;;;22.70;67.10;;;;;;5170223;28;20038;-51
2021/09/30 11:03:02;;;;;;;3.80;1.58;;;22.70;67.00;;;;;;5170436;28;20045;-49
2021/09/30 11:05:37;;;;;;;4.43;2.03;;;22.70;67.00;;;;;;5166036;28;20494;-52
2021/09/30 11:08:19;;;;;;;8.68;1.63;;;22.70;67.00;;;;;;5172479;28;20375;-53
2021/09/30 11:13:51;;;;;;;8.75;1.70;;;22.80;66.90;;;;;;5171241;28;20038;-49
2021/09/30 11:16:46;;;;;;;5.75;1.58;;;22.70;66.80;;;;;;5172301;28;20046;-49
2021/09/30 11:19:31;;;;;;;9.63;1.52;;;22.70;66.80;;;;;;5170484;28;20050;-53
2021/09/30 11:22:06;;;;;;;4.22;1.42;;;22.70;66.80;;;;;;5168412;28;20046;-49
2021/09/30 11:24:41;;;;;;;4.75;1.90;;;22.70;66.90;;;;;;5169498;28;20052;-51
2021/09/30 11:27:15;;;;;;;4.68;1.77;;;22.70;66.80;;;;;;5171296;28;20053;-51
2021/09/30 11:29:48;;;;;;;5.97;1.55;;;22.70;66.80;;;;;;5171460;28;20053;-54
2021/09/30 11:32:24;;;;;;;3.63;1.27;;;22.80;66.80;;;;;;5169762;28;20046;-48
2021/09/30 11:35:00;;;;;;;6.00;1.60;;;22.80;66.80;;;;;;5168200;28;20628;-50
2021/09/30 11:37:40;;;;;;;10.70;1.55;;;22.80;66.80;;;;;;5169944;28;20049;-49
2021/09/30 11:40:17;;;;;;;5.25;1.58;;;22.80;66.70;;;;;;5171483;28;20046;-52
2021/09/30 11:42:53;;;;;;;3.67;1.30;;;22.80;67.30;;;;;;5171870;28;20065;-52
2021/09/30 11:45:28;;;;;;;5.85;1.30;;;22.90;66.70;;;;;;5167273;28;20053;-49
2021/09/30 11:48:04;;;;;;;3.55;1.23;;;22.90;66.60;;;;;;5170988;28;20045;-51
2021/09/30 11:50:37;;;;;;;4.10;1.20;;;22.90;66.60;;;;;;5168647;28;20053;-51
2021/09/30 11:53:10;;;;;;;3.38;1.33;;;22.90;66.50;;;;;;5166899;28;20053;-52
2021/09/30 11:55:43;;;;;;;7.15;1.67;;;22.90;66.50;;;;;;5170265;28;20052;-50
2021/09/30 11:58:16;;;;;;;2.42;1.23;;;23.00;66.50;;;;;;5171007;28;20048;-53
2021/09/30 12:00:48;;;;;;;4.07;1.30;;;22.90;66.40;;;;;;5167603;28;20053;-49
2021/09/30 12:03:23;;;;;;;6.50;1.42;;;23.00;66.50;;;;;;5171688;28;20292;-53
2021/09/30 12:05:56;;;;;;;5.97;1.17;;;23.00;66.40;;;;;;5170792;28;20053;-50
2021/09/30 12:08:28;;;;;;;5.20;1.57;;;23.00;66.40;;;;;;5170114;28;20671;-54
2021/09/30 12:11:04;;;;;;;2.90;1.33;;;23.00;66.50;;;;;;5172554;28;20298;-51
2021/09/30 12:13:39;;;;;;;3.67;1.20;;;22.90;66.40;;;;;;5172667;28;20513;-49
2021/09/30 12:16:12;;;;;;;5.50;1.65;;;23.00;66.50;;;;;;5167469;28;20049;-50
2021/09/30 12:18:46;;;;;;;6.28;1.50;;;23.00;66.40;;;;;;5171880;28;20069;-48
2021/09/30 12:21:19;;;;;;;5.82;1.13;;;23.00;66.40;;;;;;5171185;28;20487;-50
2021/09/30 12:23:55;;;;;;;3.13;1.20;;;23.00;66.40;;;;;;5170679;28;20056;-49
2021/09/30 12:26:27;;;;;;;5.25;1.38;;;23.00;66.30;;;;;;5182073;28;20116;-51
2021/09/30 12:29:00;;;;;;;2.13;1.00;;;23.00;66.30;;;;;;5170356;28;20038;-48
2021/09/30 12:31:32;;;;;;;4.18;1.50;;;23.00;66.30;;;;;;5170760;28;20060;-50
2021/09/30 12:34:24;;;;;;;6.22;1.50;;;23.00;66.30;;;;;;5169385;28;20041;-53
2021/09/30 12:36:57;;;;;;;3.20;1.17;;;23.10;66.30;;;;;;5169312;28;20057;-49
2021/09/30 12:39:32;;;;;;;3.85;1.17;;;23.00;66.30;;;;;;5168959;28;20046;-52
2021/09/30 12:42:16;;;;;;;5.82;1.42;;;23.00;66.30;;;;;;5170706;28;20053;-49
2021/09/30 12:44:50;;;;;;;6.10;1.38;;;23.00;66.30;;;;;;5170609;28;20057;-52
2021/09/30 12:47:34;;;;;;;5.40;1.10;;;23.00;66.50;;;;;;5169325;28;20065;-52
2021/09/30 12:50:08;;;;;;;3.95;1.27;;;23.00;66.50;;;;;;4129584;28;10000972;-50
2021/09/30 12:52:41;;;;;;;4.80;1.50;;;23.00;66.70;;;;;;5153197;28;20059;-51
2021/09/30 12:55:19;;;;;;;7.03;1.40;;;23.00;66.70;;;;;;5156033;28;20553;-49
2021/09/30 12:57:52;;;;;;;9.23;1.73;;;23.10;66.80;;;;;;5161148;28;20319;-51
2021/09/30 13:00:32;;;;;;;8.30;1.80;;;23.20;66.80;;;;;;5161055;28;20050;-51
2021/09/30 13:03:13;;;;;;;6.28;1.52;;;23.20;66.80;;;;;;5164602;28;20410;-54
2021/09/30 13:05:49;;;;;;;7.40;1.67;;;23.30;66.60;;;;;;5163189;28;20046;-49
2021/09/30 13:08:40;;;;;;;8.27;1.52;;;23.30;66.40;;;;;;5166478;28;20050;-50
2021/09/30 13:11:35;;;;;;;12.27;1.23;;;23.40;65.90;;;;;;5161365;28;20057;-49
2021/09/30 13:14:23;;;;;;;6.85;1.45;;;23.40;65.80;;;;;;5161512;28;20053;-51
2021/09/30 13:17:14;;;;;;;2.90;0.98;;;23.40;65.50;;;;;;5165843;28;20052;-50
2021/09/30 13:19:53;;;;;;;11.57;2.25;;;23.50;65.20;;;;;;5155447;28;20049;-51
2021/09/30 13:22:51;;;;;;;5.82;1.35;;;23.50;64.80;;;;;;5145616;28;20050;-50
2021/09/30 13:25:24;;;;;;;5.53;0.90;;;23.50;62.90;;;;;;5151836;28;20058;-52
2021/09/30 13:27:57;;;;;;;8.45;1.63;;;23.60;62.30;;;;;;5149899;28;20065;-51
2021/09/30 13:30:33;;;;;;;3.63;0.80;;;23.60;61.60;;;;;;5160007;28;20042;-53
2021/09/30 13:33:06;;;;;;;1.73;0.63;;;23.60;60.70;;;;;;5161277;28;20050;-49
2021/09/30 13:35:39;;;;;;;5.38;1.05;;;23.60;60.10;;;;;;5160100;28;20518;-51
2021/09/30 13:38:12;;;;;;;3.60;0.80;;;23.60;59.50;;;;;;5151737;28;20525;-50
2021/09/30 13:40:44;;;;;;;6.63;0.85;;;23.70;59.30;;;;;;5160813;28;20046;-52
2021/09/30 13:43:17;;;;;;;6.70;0.80;;;23.70;59.20;;;;;;5164861;28;20412;-48
2021/09/30 13:45:49;;;;;;;6.07;1.10;;;23.70;59.80;;;;;;5147884;28;20054;-52
2021/09/30 13:48:22;;;;;;;1.58;0.80;;;23.70;59.60;;;;;;5151073;28;20057;-54
2021/09/30 13:50:55;;;;;;;7.82;1.40;;;23.80;59.90;;;;;;5150770;28;20062;-56
2021/09/30 13:53:28;;;;;;;3.33;1.02;;;23.80;60.20;;;;;;5154129;28;20921;-51
2021/09/30 13:56:00;;;;;;;9.48;1.55;;;23.90;60.50;;;;;;5145934;28;20054;-52
2021/09/30 13:58:35;;;;;;;6.63;0.90;;;24.00;60.60;;;;;;5154671;28;20556;-54
2021/09/30 14:01:08;;;;;;;3.50;1.25;;;24.10;60.80;;;;;;5150290;28;20068;-52
2021/09/30 14:03:41;;;;;;;8.10;1.20;;;24.20;60.00;;;;;;5154317;28;20050;-54
2021/09/30 14:06:13;;;;;;;5.47;1.05;;;24.30;59.90;;;;;;5155930;28;20533;-50
2021/09/30 14:08:46;;;;;;;8.63;1.13;;;24.40;60.10;;;;;;5161571;28;20054;-53
2021/09/30 14:11:19;;;;;;;8.20;0.83;;;24.50;60.30;;;;;;5163910;28;20046;-50
2021/09/30 14:13:55;;;;;;;3.88;0.60;;;24.60;60.50;;;;;;5160058;28;20763;-57
2021/09/30 14:16:27;;;;;;;5.70;0.90;;;24.70;60.40;;;;;;5159390;28;20296;-55
2021/09/30 14:19:00;;;;;;;4.38;1.00;;;24.80;60.40;;;;;;5153075;28;20585;-54
2021/09/30 14:21:32;;;;;;;2.58;1.00;;;24.80;60.40;;;;;;5145100;28;20045;-55
2021/09/30 14:24:05;;;;;;;9.25;1.30;;;24.90;60.40;;;;;;5140181;28;20045;-58
2021/09/30 14:26:38;;;;;;;4.10;1.02;;;25.00;60.40;;;;;;5155596;28;20043;-56
2021/09/30 14:29:10;;;;;;;4.47;0.80;;;25.00;60.20;;;;;;5152436;28;20417;-56
2021/09/30 14:31:44;;;;;;;4.30;0.80;;;25.00;60.20;;;;;;5150078;28;20809;-56
2021/09/30 14:34:16;;;;;;;;;;;25.10;60.30;;;;;;5163517;28;20050;-57
2021/09/30 14:36:49;;;;;;;9.65;0.93;;;25.00;60.40;;;;;;5173122;28;20547;-56
2021/09/30 14:39:21;;;;;;;2.15;0.90;;;25.10;60.60;;;;;;5158042;28;20042;-55
2021/09/30 14:41:54;;;;;;;5.53;1.40;;;25.10;60.70;;;;;;5145897;28;20559;-55
2021/09/30 14:44:26;;;;;;;5.07;1.15;;;25.00;60.70;;;;;;5155378;28;20300;-56
2021/09/30 14:47:00;;;;;;;3.70;0.87;;;25.10;60.80;;;;;;5148565;28;20046;-53
2021/09/30 14:49:39;;;;;;;3.30;0.90;;;25.10;60.80;;;;;;5141620;28;20053;-55
2021/09/30 14:52:12;;;;;;;7.00;1.38;;;25.10;60.90;;;;;;5167832;28;20399;-55
2021/09/30 14:54:45;;;;;;;5.18;1.10;;;25.10;60.90;;;;;;5166449;28;20045;-55
2021/09/30 14:57:18;;;;;;;5.03;0.77;;;25.00;60.90;;;;;;5164735;28;20720;-52
2021/09/30 14:59:50;;;;;;;3.88;1.00;;;25.10;61.00;;;;;;5146879;28;20054;-58
2021/09/30 15:02:23;;;;;;;4.43;0.95;;;25.10;61.00;;;;;;5150083;28;20049;-55
2021/09/30 15:04:55;;;;;;;4.28;1.35;;;25.00;61.00;;;;;;5155318;28;20050;-54
2021/09/30 15:07:28;;;;;;;2.90;0.80;;;25.00;61.10;;;;;;5153278;28;20057;-52
2021/09/30 15:10:00;;;;;;;4.05;0.75;;;25.00;61.20;;;;;;5149556;28;20065;-49
2021/09/30 15:12:33;;;;;;;5.65;0.98;;;25.00;61.30;;;;;;5145955;28;20060;-53
2021/09/30 15:15:07;;;;;;;4.55;1.17;;;25.00;60.60;;;;;;5147697;28;20052;-54
2021/09/30 15:21:20;;;;;;;8.63;1.35;;;24.90;58.30;;;;;;5157068;28;20053;-51
2021/09/30 15:23:18;;;;;;;4.65;1.10;;;24.90;57.80;;;;;;5156337;28;20054;-52
2021/09/30 15:25:51;;;;;;;4.63;1.00;;;24.80;56.90;;;;;;5156651;28;20054;-53
2021/09/30 15:28:25;;;;;;;3.75;1.20;;;24.80;56.70;;;;;;5156109;28;20423;-54
2021/09/30 15:30:57;;;;;;;5.35;0.95;;;24.70;55.90;;;;;;5149281;28;20067;-55
2021/09/30 15:33:30;;;;;;;6.80;0.90;;;24.70;55.00;;;;;;5161742;28;20041;-55
2021/09/30 15:36:04;;;;;;;2.50;0.93;;;24.60;54.10;;;;;;5161634;28;20570;-53
2021/09/30 15:38:37;;;;;;;2.40;0.90;;;24.50;54.00;;;;;;5160638;28;20550;-53
2021/09/30 15:41:11;;;;;;;4.90;1.38;;;24.40;53.50;;;;;;5160732;28;20050;-52
2021/09/30 15:43:51;;;;;;;5.65;1.20;;;24.40;53.60;;;;;;5143846;28;20557;-53
2021/09/30 15:46:24;;;;;;;2.72;0.75;;;24.30;53.50;;;;;;5163948;28;20273;-51
2021/09/30 15:48:57;;;;;;;2.63;0.90;;;24.20;53.70;;;;;;5146975;28;20046;-52
2021/09/30 15:51:30;;;;;;;4.97;1.48;;;24.20;53.70;;;;;;5149951;28;20048;-54
2021/09/30 15:54:02;;;;;;;6.10;0.93;;;24.10;53.60;;;;;;5140611;28;20391;-53
2021/09/30 15:56:35;;;;;;;3.83;1.00;;;24.10;54.00;;;;;;5152313;28;20317;-52
2021/09/30 15:59:07;;;;;;;4.75;0.68;;;24.00;53.90;;;;;;5156435;28;20045;-53
2021/09/30 16:01:40;;;;;;;5.45;0.95;;;24.00;53.60;;;;;;5152500;28;20050;-50
2021/09/30 16:04:12;;;;;;;2.95;0.80;;;24.00;53.60;;;;;;5153518;28;20521;-52
2021/09/30 16:06:45;;;;;;;4.72;1.10;;;23.90;53.50;;;;;;5151867;28;20518;-55
2021/09/30 16:09:17;;;;;;;2.95;1.00;;;23.90;53.50;;;;;;5149152;28;20057;-54
2021/09/30 16:11:50;;;;;;;2.38;1.00;;;23.90;53.30;;;;;;5136877;28;20053;-54
2021/09/30 16:14:22;;;;;;;1.57;0.70;;;23.80;53.40;;;;;;5140872;28;20079;-52
2021/09/30 16:16:57;;;;;;;2.87;1.00;;;23.80;54.40;;;;;;5149865;28;20049;-52
2021/09/30 16:19:29;;;;;;;1.35;0.70;;;23.70;54.40;;;;;;5152496;28;20308;-52
2021/09/30 16:22:04;;;;;;;3.28;0.88;;;23.80;54.10;;;;;;5144258;28;20407;-55
2021/09/30 16:24:37;;;;;;;2.35;0.65;;;23.70;54.00;;;;;;5153557;28;20320;-52